sensor_id;sensor_type;location;lat;lon;timestamp;P1;durP1;ratioP1;P2;durP2;ratioP2
18176;SDS011;9213;50.858;3.964;2023-07-09T00:00:40;9.55;;;4.93;;
18176;SDS011;9213;50.858;3.964;2023-07-09T00:03:07;6.72;;;4.80;;
18176;SDS011;9213;50.858;3.964;2023-07-09T00:05:36;8.32;;;5.32;;
18176;SDS011;9213;50.858;3.964;2023-07-09T00:08:03;6.75;;;5.07;;
18176;SDS011;9213;50.858;3.964;2023-07-09T00:10:30;7.20;;;5.00;;
18176;SDS011;9213;50.858;3.964;2023-07-09T00:13:00;5.38;;;4.78;;
18176;SDS011;9213;50.858;3.964;2023-07-09T00:15:27;6.28;;;4.95;;
18176;SDS011;9213;50.858;3.964;2023-07-09T00:17:54;9.30;;;5.40;;
18176;SDS011;9213;50.858;3.964;2023-07-09T00:20:21;5.75;;;5.15;;
18176;SDS011;9213;50.858;3.964;2023-07-09T00:22:48;6.28;;;4.70;;
18176;SDS011;9213;50.858;3.964;2023-07-09T00:25:18;7.28;;;4.65;;
18176;SDS011;9213;50.858;3.964;2023-07-09T00:27:45;6.15;;;4.47;;
18176;SDS011;9213;50.858;3.964;2023-07-09T00:30:17;6.18;;;4.72;;
18176;SDS011;9213;50.858;3.964;2023-07-09T00:32:47;7.28;;;4.88;;
18176;SDS011;9213;50.858;3.964;2023-07-09T00:35:14;6.28;;;5.13;;
18176;SDS011;9213;50.858;3.964;2023-07-09T00:37:41;5.93;;;4.55;;
18176;SDS011;9213;50.858;3.964;2023-07-09T00:40:10;6.82;;;4.90;;
18176;SDS011;9213;50.858;3.964;2023-07-09T00:42:44;9.23;;;4.60;;
18176;SDS011;9213;50.858;3.964;2023-07-09T00:45:18;7.35;;;4.70;;
18176;SDS011;9213;50.858;3.964;2023-07-09T00:47:48;6.70;;;4.88;;
18176;SDS011;9213;50.858;3.964;2023-07-09T00:50:24;6.68;;;5.00;;
18176;SDS011;9213;50.858;3.964;2023-07-09T00:53:02;5.00;;;4.40;;
18176;SDS011;9213;50.858;3.964;2023-07-09T00:55:36;11.82;;;4.55;;
18176;SDS011;9213;50.858;3.964;2023-07-09T00:58:06;6.53;;;4.65;;
18176;SDS011;9213;50.858;3.964;2023-07-09T01:00:39;7.15;;;4.57;;
18176;SDS011;9213;50.858;3.964;2023-07-09T01:03:13;9.02;;;4.32;;
18176;SDS011;9213;50.858;3.964;2023-07-09T01:05:46;6.50;;;4.38;;
18176;SDS011;9213;50.858;3.964;2023-07-09T01:08:16;5.45;;;4.47;;
18176;SDS011;9213;50.858;3.964;2023-07-09T01:10:45;6.15;;;4.70;;
18176;SDS011;9213;50.858;3.964;2023-07-09T01:13:13;6.90;;;4.43;;
18176;SDS011;9213;50.858;3.964;2023-07-09T01:15:41;7.45;;;4.70;;
18176;SDS011;9213;50.858;3.964;2023-07-09T01:18:08;5.82;;;4.68;;
18176;SDS011;9213;50.858;3.964;2023-07-09T01:20:37;9.23;;;5.30;;
18176;SDS011;9213;50.858;3.964;2023-07-09T01:23:07;6.57;;;4.80;;
18176;SDS011;9213;50.858;3.964;2023-07-09T01:25:34;7.75;;;4.93;;
18176;SDS011;9213;50.858;3.964;2023-07-09T01:28:04;5.38;;;4.82;;
18176;SDS011;9213;50.858;3.964;2023-07-09T01:30:32;9.15;;;4.90;;
18176;SDS011;9213;50.858;3.964;2023-07-09T01:33:02;9.02;;;5.22;;
18176;SDS011;9213;50.858;3.964;2023-07-09T01:35:31;6.13;;;4.85;;
18176;SDS011;9213;50.858;3.964;2023-07-09T01:38:01;6.28;;;4.63;;
18176;SDS011;9213;50.858;3.964;2023-07-09T01:40:33;6.85;;;5.05;;
18176;SDS011;9213;50.858;3.964;2023-07-09T01:43:00;8.50;;;4.97;;
18176;SDS011;9213;50.858;3.964;2023-07-09T01:45:31;7.32;;;4.78;;
18176;SDS011;9213;50.858;3.964;2023-07-09T01:47:59;5.82;;;4.97;;
18176;SDS011;9213;50.858;3.964;2023-07-09T01:50:27;7.05;;;4.90;;
18176;SDS011;9213;50.858;3.964;2023-07-09T01:52:54;7.43;;;4.95;;
18176;SDS011;9213;50.858;3.964;2023-07-09T01:55:22;4.88;;;4.38;;
18176;SDS011;9213;50.858;3.964;2023-07-09T01:57:51;6.88;;;4.95;;
18176;SDS011;9213;50.858;3.964;2023-07-09T02:00:18;6.10;;;5.05;;
18176;SDS011;9213;50.858;3.964;2023-07-09T02:02:45;5.95;;;4.88;;
18176;SDS011;9213;50.858;3.964;2023-07-09T02:05:13;6.95;;;4.97;;
18176;SDS011;9213;50.858;3.964;2023-07-09T02:07:41;10.48;;;5.85;;
18176;SDS011;9213;50.858;3.964;2023-07-09T02:10:10;6.60;;;4.80;;
18176;SDS011;9213;50.858;3.964;2023-07-09T02:12:37;8.77;;;4.95;;
18176;SDS011;9213;50.858;3.964;2023-07-09T02:15:06;5.72;;;4.97;;
18176;SDS011;9213;50.858;3.964;2023-07-09T02:17:34;7.50;;;5.00;;
18176;SDS011;9213;50.858;3.964;2023-07-09T02:20:01;8.50;;;5.43;;
18176;SDS011;9213;50.858;3.964;2023-07-09T02:22:30;5.68;;;4.47;;
18176;SDS011;9213;50.858;3.964;2023-07-09T02:24:57;5.65;;;4.72;;
18176;SDS011;9213;50.858;3.964;2023-07-09T02:27:24;6.55;;;5.15;;
18176;SDS011;9213;50.858;3.964;2023-07-09T02:29:51;5.65;;;5.07;;
18176;SDS011;9213;50.858;3.964;2023-07-09T02:32:21;8.07;;;5.43;;
18176;SDS011;9213;50.858;3.964;2023-07-09T02:34:51;8.90;;;5.30;;
18176;SDS011;9213;50.858;3.964;2023-07-09T02:37:19;5.53;;;4.72;;
18176;SDS011;9213;50.858;3.964;2023-07-09T02:39:47;6.25;;;5.32;;
18176;SDS011;9213;50.858;3.964;2023-07-09T02:42:15;7.03;;;4.80;;
18176;SDS011;9213;50.858;3.964;2023-07-09T02:44:43;6.63;;;5.10;;
18176;SDS011;9213;50.858;3.964;2023-07-09T02:47:11;6.03;;;5.00;;
18176;SDS011;9213;50.858;3.964;2023-07-09T02:49:40;9.68;;;5.38;;
18176;SDS011;9213;50.858;3.964;2023-07-09T02:52:07;8.32;;;5.28;;
18176;SDS011;9213;50.858;3.964;2023-07-09T02:54:34;7.43;;;5.00;;
18176;SDS011;9213;50.858;3.964;2023-07-09T02:57:01;5.40;;;4.80;;
18176;SDS011;9213;50.858;3.964;2023-07-09T02:59:28;8.15;;;4.90;;
18176;SDS011;9213;50.858;3.964;2023-07-09T03:01:55;6.78;;;5.60;;
18176;SDS011;9213;50.858;3.964;2023-07-09T03:04:22;9.48;;;5.25;;
18176;SDS011;9213;50.858;3.964;2023-07-09T03:06:51;5.97;;;5.35;;
18176;SDS011;9213;50.858;3.964;2023-07-09T03:09:18;10.02;;;5.10;;
18176;SDS011;9213;50.858;3.964;2023-07-09T03:11:45;5.80;;;5.03;;
18176;SDS011;9213;50.858;3.964;2023-07-09T03:14:13;8.50;;;5.13;;
18176;SDS011;9213;50.858;3.964;2023-07-09T03:16:41;9.88;;;5.28;;
18176;SDS011;9213;50.858;3.964;2023-07-09T03:19:08;5.78;;;5.03;;
18176;SDS011;9213;50.858;3.964;2023-07-09T03:21:35;7.47;;;5.22;;
18176;SDS011;9213;50.858;3.964;2023-07-09T03:24:03;6.55;;;5.43;;
18176;SDS011;9213;50.858;3.964;2023-07-09T03:26:31;7.72;;;5.80;;
18176;SDS011;9213;50.858;3.964;2023-07-09T03:28:58;8.80;;;6.53;;
18176;SDS011;9213;50.858;3.964;2023-07-09T03:31:25;8.27;;;6.32;;
18176;SDS011;9213;50.858;3.964;2023-07-09T03:33:52;15.32;;;7.40;;
18176;SDS011;9213;50.858;3.964;2023-07-09T03:36:19;10.45;;;7.13;;
18176;SDS011;9213;50.858;3.964;2023-07-09T03:38:46;11.38;;;8.23;;
18176;SDS011;9213;50.858;3.964;2023-07-09T03:41:15;12.88;;;8.80;;
18176;SDS011;9213;50.858;3.964;2023-07-09T03:43:42;10.80;;;8.35;;
18176;SDS011;9213;50.858;3.964;2023-07-09T03:46:09;11.77;;;8.85;;
18176;SDS011;9213;50.858;3.964;2023-07-09T03:48:36;13.43;;;9.90;;
18176;SDS011;9213;50.858;3.964;2023-07-09T03:51:03;15.23;;;10.48;;
18176;SDS011;9213;50.858;3.964;2023-07-09T03:53:30;13.65;;;11.25;;
18176;SDS011;9213;50.858;3.964;2023-07-09T03:55:57;15.27;;;11.90;;
18176;SDS011;9213;50.858;3.964;2023-07-09T03:58:26;15.73;;;12.77;;
18176;SDS011;9213;50.858;3.964;2023-07-09T04:00:53;16.00;;;13.30;;
18176;SDS011;9213;50.858;3.964;2023-07-09T04:03:20;19.08;;;13.93;;
18176;SDS011;9213;50.858;3.964;2023-07-09T04:05:47;15.80;;;12.80;;
18176;SDS011;9213;50.858;3.964;2023-07-09T04:08:14;15.43;;;13.82;;
18176;SDS011;9213;50.858;3.964;2023-07-09T04:10:41;20.08;;;15.15;;
18176;SDS011;9213;50.858;3.964;2023-07-09T04:13:08;21.75;;;18.13;;
18176;SDS011;9213;50.858;3.964;2023-07-09T04:15:36;21.95;;;16.40;;
18176;SDS011;9213;50.858;3.964;2023-07-09T04:18:03;21.90;;;17.70;;
18176;SDS011;9213;50.858;3.964;2023-07-09T04:20:30;31.17;;;27.60;;
18176;SDS011;9213;50.858;3.964;2023-07-09T04:22:59;41.17;;;36.63;;
18176;SDS011;9213;50.858;3.964;2023-07-09T04:25:27;57.08;;;46.10;;
18176;SDS011;9213;50.858;3.964;2023-07-09T04:27:54;59.53;;;49.70;;
18176;SDS011;9213;50.858;3.964;2023-07-09T04:30:21;60.38;;;52.58;;
18176;SDS011;9213;50.858;3.964;2023-07-09T04:32:50;68.20;;;56.95;;
18176;SDS011;9213;50.858;3.964;2023-07-09T04:35:17;74.60;;;61.88;;
18176;SDS011;9213;50.858;3.964;2023-07-09T04:37:44;70.13;;;62.38;;
18176;SDS011;9213;50.858;3.964;2023-07-09T04:40:11;82.28;;;64.88;;
18176;SDS011;9213;50.858;3.964;2023-07-09T04:42:40;77.15;;;67.03;;
18176;SDS011;9213;50.858;3.964;2023-07-09T04:45:08;83.00;;;71.78;;
18176;SDS011;9213;50.858;3.964;2023-07-09T04:47:37;87.70;;;73.40;;
18176;SDS011;9213;50.858;3.964;2023-07-09T04:50:07;87.57;;;75.95;;
18176;SDS011;9213;50.858;3.964;2023-07-09T04:52:35;89.40;;;75.28;;
18176;SDS011;9213;50.858;3.964;2023-07-09T04:55:03;92.13;;;78.53;;
18176;SDS011;9213;50.858;3.964;2023-07-09T04:57:30;89.78;;;74.72;;
18176;SDS011;9213;50.858;3.964;2023-07-09T04:59:57;96.60;;;78.07;;
18176;SDS011;9213;50.858;3.964;2023-07-09T05:02:24;88.95;;;76.90;;
18176;SDS011;9213;50.858;3.964;2023-07-09T05:04:51;91.53;;;77.65;;
18176;SDS011;9213;50.858;3.964;2023-07-09T05:07:20;90.85;;;79.93;;
18176;SDS011;9213;50.858;3.964;2023-07-09T05:09:47;94.85;;;77.95;;
18176;SDS011;9213;50.858;3.964;2023-07-09T05:12:16;93.55;;;77.93;;
18176;SDS011;9213;50.858;3.964;2023-07-09T05:14:45;89.80;;;78.55;;
18176;SDS011;9213;50.858;3.964;2023-07-09T05:17:12;89.78;;;74.07;;
18176;SDS011;9213;50.858;3.964;2023-07-09T05:19:39;89.20;;;77.90;;
18176;SDS011;9213;50.858;3.964;2023-07-09T05:22:05;86.65;;;74.85;;
18176;SDS011;9213;50.858;3.964;2023-07-09T05:24:34;90.20;;;77.68;;
18176;SDS011;9213;50.858;3.964;2023-07-09T05:27:01;86.93;;;74.57;;
18176;SDS011;9213;50.858;3.964;2023-07-09T05:29:28;85.70;;;74.97;;
18176;SDS011;9213;50.858;3.964;2023-07-09T05:31:55;85.85;;;72.93;;
18176;SDS011;9213;50.858;3.964;2023-07-09T05:34:22;80.35;;;66.90;;
18176;SDS011;9213;50.858;3.964;2023-07-09T05:36:49;78.78;;;64.50;;
18176;SDS011;9213;50.858;3.964;2023-07-09T05:39:16;69.72;;;60.13;;
18176;SDS011;9213;50.858;3.964;2023-07-09T05:41:44;77.80;;;63.28;;
18176;SDS011;9213;50.858;3.964;2023-07-09T05:44:11;68.28;;;59.05;;
18176;SDS011;9213;50.858;3.964;2023-07-09T05:46:38;61.80;;;55.08;;
18176;SDS011;9213;50.858;3.964;2023-07-09T05:49:05;65.80;;;55.25;;
18176;SDS011;9213;50.858;3.964;2023-07-09T05:51:32;63.35;;;53.85;;
18176;SDS011;9213;50.858;3.964;2023-07-09T05:53:59;63.60;;;54.65;;
18176;SDS011;9213;50.858;3.964;2023-07-09T05:56:26;69.20;;;58.05;;
18176;SDS011;9213;50.858;3.964;2023-07-09T05:58:55;72.95;;;58.95;;
18176;SDS011;9213;50.858;3.964;2023-07-09T06:01:22;68.90;;;57.30;;
18176;SDS011;9213;50.858;3.964;2023-07-09T06:03:49;69.18;;;55.63;;
18176;SDS011;9213;50.858;3.964;2023-07-09T06:06:16;65.40;;;54.15;;
18176;SDS011;9213;50.858;3.964;2023-07-09T06:08:43;65.80;;;54.05;;
18176;SDS011;9213;50.858;3.964;2023-07-09T06:11:11;60.03;;;49.85;;
18176;SDS011;9213;50.858;3.964;2023-07-09T06:13:38;58.42;;;49.55;;
18176;SDS011;9213;50.858;3.964;2023-07-09T06:16:07;55.08;;;43.80;;
18176;SDS011;9213;50.858;3.964;2023-07-09T06:18:34;53.45;;;42.33;;
18176;SDS011;9213;50.858;3.964;2023-07-09T06:21:01;48.33;;;40.53;;
18176;SDS011;9213;50.858;3.964;2023-07-09T06:23:29;48.55;;;37.90;;
18176;SDS011;9213;50.858;3.964;2023-07-09T06:25:56;42.25;;;35.55;;
18176;SDS011;9213;50.858;3.964;2023-07-09T06:28:24;45.97;;;34.03;;
18176;SDS011;9213;50.858;3.964;2023-07-09T06:30:53;38.63;;;32.45;;
18176;SDS011;9213;50.858;3.964;2023-07-09T06:33:23;37.42;;;31.02;;
18176;SDS011;9213;50.858;3.964;2023-07-09T06:35:53;38.38;;;30.33;;
18176;SDS011;9213;50.858;3.964;2023-07-09T06:38:21;37.03;;;29.55;;
18176;SDS011;9213;50.858;3.964;2023-07-09T06:40:48;33.22;;;27.25;;
18176;SDS011;9213;50.858;3.964;2023-07-09T06:43:15;31.77;;;26.10;;
18176;SDS011;9213;50.858;3.964;2023-07-09T06:45:49;31.63;;;25.77;;
18176;SDS011;9213;50.858;3.964;2023-07-09T06:48:17;31.02;;;25.77;;
18176;SDS011;9213;50.858;3.964;2023-07-09T06:50:46;29.85;;;25.92;;
18176;SDS011;9213;50.858;3.964;2023-07-09T06:53:13;30.70;;;25.05;;
18176;SDS011;9213;50.858;3.964;2023-07-09T06:55:40;27.95;;;24.02;;
18176;SDS011;9213;50.858;3.964;2023-07-09T06:58:08;24.80;;;20.15;;
18176;SDS011;9213;50.858;3.964;2023-07-09T07:00:35;28.15;;;19.48;;
18176;SDS011;9213;50.858;3.964;2023-07-09T07:03:02;23.17;;;17.23;;
18176;SDS011;9213;50.858;3.964;2023-07-09T07:05:29;21.25;;;17.08;;
18176;SDS011;9213;50.858;3.964;2023-07-09T07:07:58;22.45;;;16.58;;
18176;SDS011;9213;50.858;3.964;2023-07-09T07:10:25;21.85;;;15.45;;
18176;SDS011;9213;50.858;3.964;2023-07-09T07:12:52;18.27;;;15.05;;
18176;SDS011;9213;50.858;3.964;2023-07-09T07:15:19;20.88;;;15.95;;
18176;SDS011;9213;50.858;3.964;2023-07-09T07:17:47;19.40;;;15.38;;
18176;SDS011;9213;50.858;3.964;2023-07-09T07:20:14;18.08;;;14.60;;
18176;SDS011;9213;50.858;3.964;2023-07-09T07:22:42;18.90;;;15.20;;
18176;SDS011;9213;50.858;3.964;2023-07-09T07:25:10;16.20;;;13.98;;
18176;SDS011;9213;50.858;3.964;2023-07-09T07:27:37;17.85;;;13.88;;
18176;SDS011;9213;50.858;3.964;2023-07-09T07:30:05;18.20;;;12.77;;
18176;SDS011;9213;50.858;3.964;2023-07-09T07:32:34;14.82;;;11.48;;
18176;SDS011;9213;50.858;3.964;2023-07-09T07:35:02;15.10;;;11.32;;
18176;SDS011;9213;50.858;3.964;2023-07-09T07:37:30;13.23;;;11.05;;
18176;SDS011;9213;50.858;3.964;2023-07-09T07:39:57;14.75;;;10.18;;
18176;SDS011;9213;50.858;3.964;2023-07-09T07:42:25;13.32;;;9.75;;
18176;SDS011;9213;50.858;3.964;2023-07-09T07:44:52;15.05;;;9.93;;
18176;SDS011;9213;50.858;3.964;2023-07-09T07:47:19;16.45;;;10.05;;
18176;SDS011;9213;50.858;3.964;2023-07-09T07:49:46;13.95;;;10.05;;
18176;SDS011;9213;50.858;3.964;2023-07-09T07:52:12;13.88;;;9.68;;
18176;SDS011;9213;50.858;3.964;2023-07-09T07:54:39;12.63;;;11.30;;
18176;SDS011;9213;50.858;3.964;2023-07-09T07:57:07;14.05;;;11.10;;
18176;SDS011;9213;50.858;3.964;2023-07-09T07:59:35;16.35;;;13.63;;
18176;SDS011;9213;50.858;3.964;2023-07-09T08:02:03;15.57;;;12.48;;
18176;SDS011;9213;50.858;3.964;2023-07-09T08:04:30;15.57;;;11.52;;
18176;SDS011;9213;50.858;3.964;2023-07-09T08:06:57;16.80;;;11.95;;
18176;SDS011;9213;50.858;3.964;2023-07-09T08:09:25;15.05;;;13.27;;
18176;SDS011;9213;50.858;3.964;2023-07-09T08:11:51;16.55;;;12.60;;
18176;SDS011;9213;50.858;3.964;2023-07-09T08:14:18;18.02;;;12.07;;
18176;SDS011;9213;50.858;3.964;2023-07-09T08:16:47;15.65;;;11.43;;
18176;SDS011;9213;50.858;3.964;2023-07-09T08:19:17;19.02;;;12.27;;
18176;SDS011;9213;50.858;3.964;2023-07-09T08:21:45;15.65;;;10.57;;
18176;SDS011;9213;50.858;3.964;2023-07-09T08:24:12;13.68;;;10.88;;
18176;SDS011;9213;50.858;3.964;2023-07-09T08:26:39;14.50;;;11.38;;
18176;SDS011;9213;50.858;3.964;2023-07-09T08:29:06;15.38;;;11.13;;
18176;SDS011;9213;50.858;3.964;2023-07-09T08:31:33;13.13;;;10.50;;
18176;SDS011;9213;50.858;3.964;2023-07-09T08:34:02;15.27;;;11.52;;
18176;SDS011;9213;50.858;3.964;2023-07-09T08:36:29;12.10;;;9.40;;
18176;SDS011;9213;50.858;3.964;2023-07-09T08:38:55;15.75;;;10.98;;
18176;SDS011;9213;50.858;3.964;2023-07-09T08:41:30;11.57;;;10.35;;
18176;SDS011;9213;50.858;3.964;2023-07-09T08:44:08;12.95;;;10.30;;
18176;SDS011;9213;50.858;3.964;2023-07-09T08:46:49;12.88;;;10.30;;
18176;SDS011;9213;50.858;3.964;2023-07-09T08:49:43;10.40;;;8.57;;
18176;SDS011;9213;50.858;3.964;2023-07-09T08:52:15;16.42;;;10.63;;
18176;SDS011;9213;50.858;3.964;2023-07-09T08:54:50;16.52;;;10.85;;
18176;SDS011;9213;50.858;3.964;2023-07-09T08:57:19;14.00;;;11.27;;
18176;SDS011;9213;50.858;3.964;2023-07-09T08:59:49;14.05;;;9.52;;
18176;SDS011;9213;50.858;3.964;2023-07-09T09:02:25;12.35;;;9.60;;
18176;SDS011;9213;50.858;3.964;2023-07-09T09:04:57;17.17;;;10.60;;
18176;SDS011;9213;50.858;3.964;2023-07-09T09:07:28;12.68;;;9.88;;
18176;SDS011;9213;50.858;3.964;2023-07-09T09:10:04;12.98;;;10.55;;
18176;SDS011;9213;50.858;3.964;2023-07-09T09:12:35;15.18;;;10.80;;
18176;SDS011;9213;50.858;3.964;2023-07-09T09:15:09;15.73;;;10.52;;
18176;SDS011;9213;50.858;3.964;2023-07-09T09:17:40;13.23;;;10.52;;
18176;SDS011;9213;50.858;3.964;2023-07-09T09:20:09;13.25;;;10.40;;
18176;SDS011;9213;50.858;3.964;2023-07-09T09:22:44;13.18;;;9.63;;
18176;SDS011;9213;50.858;3.964;2023-07-09T09:25:20;14.90;;;9.57;;
18176;SDS011;9213;50.858;3.964;2023-07-09T09:27:52;12.82;;;9.77;;
18176;SDS011;9213;50.858;3.964;2023-07-09T09:30:19;11.25;;;9.23;;
18176;SDS011;9213;50.858;3.964;2023-07-09T09:32:50;16.15;;;9.93;;
18176;SDS011;9213;50.858;3.964;2023-07-09T09:35:25;9.95;;;8.82;;
18176;SDS011;9213;50.858;3.964;2023-07-09T09:37:54;10.65;;;8.23;;
18176;SDS011;9213;50.858;3.964;2023-07-09T09:40:23;12.15;;;8.43;;
18176;SDS011;9213;50.858;3.964;2023-07-09T09:42:52;10.88;;;7.22;;
18176;SDS011;9213;50.858;3.964;2023-07-09T09:45:26;9.70;;;6.97;;
18176;SDS011;9213;50.858;3.964;2023-07-09T09:47:58;10.32;;;7.28;;
18176;SDS011;9213;50.858;3.964;2023-07-09T09:50:31;8.68;;;7.38;;
18176;SDS011;9213;50.858;3.964;2023-07-09T09:52:59;11.35;;;7.20;;
18176;SDS011;9213;50.858;3.964;2023-07-09T09:55:28;9.63;;;7.20;;
18176;SDS011;9213;50.858;3.964;2023-07-09T09:57:57;9.73;;;6.80;;
18176;SDS011;9213;50.858;3.964;2023-07-09T10:00:25;8.95;;;6.47;;
18176;SDS011;9213;50.858;3.964;2023-07-09T10:02:56;9.73;;;6.80;;
18176;SDS011;9213;50.858;3.964;2023-07-09T10:05:27;10.15;;;6.32;;
18176;SDS011;9213;50.858;3.964;2023-07-09T10:07:59;10.52;;;6.60;;
18176;SDS011;9213;50.858;3.964;2023-07-09T10:10:30;9.07;;;6.43;;
18176;SDS011;9213;50.858;3.964;2023-07-09T10:13:02;9.43;;;5.90;;
18176;SDS011;9213;50.858;3.964;2023-07-09T10:15:38;8.52;;;5.97;;
18176;SDS011;9213;50.858;3.964;2023-07-09T10:18:11;11.55;;;7.22;;
18176;SDS011;9213;50.858;3.964;2023-07-09T10:20:51;11.73;;;7.03;;
18176;SDS011;9213;50.858;3.964;2023-07-09T10:23:29;8.48;;;5.85;;
18176;SDS011;9213;50.858;3.964;2023-07-09T10:26:05;9.52;;;5.43;;
18176;SDS011;9213;50.858;3.964;2023-07-09T10:31:44;7.35;;;4.60;;
18176;SDS011;9213;50.858;3.964;2023-07-09T10:34:18;6.95;;;5.00;;
18176;SDS011;9213;50.858;3.964;2023-07-09T10:39:56;7.30;;;4.32;;
18176;SDS011;9213;50.858;3.964;2023-07-09T10:42:24;6.15;;;4.25;;
18176;SDS011;9213;50.858;3.964;2023-07-09T10:44:57;6.00;;;4.35;;
18176;SDS011;9213;50.858;3.964;2023-07-09T10:47:28;6.47;;;4.60;;
18176;SDS011;9213;50.858;3.964;2023-07-09T10:49:59;6.35;;;4.30;;
18176;SDS011;9213;50.858;3.964;2023-07-09T10:52:32;6.25;;;4.32;;
18176;SDS011;9213;50.858;3.964;2023-07-09T10:55:04;8.35;;;4.47;;
18176;SDS011;9213;50.858;3.964;2023-07-09T10:57:41;5.47;;;4.38;;
18176;SDS011;9213;50.858;3.964;2023-07-09T11:00:15;6.25;;;4.55;;
18176;SDS011;9213;50.858;3.964;2023-07-09T11:02:45;8.52;;;4.22;;
18176;SDS011;9213;50.858;3.964;2023-07-09T11:05:17;8.52;;;4.22;;
18176;SDS011;9213;50.858;3.964;2023-07-09T11:07:45;8.45;;;4.45;;
18176;SDS011;9213;50.858;3.964;2023-07-09T11:10:20;5.47;;;4.55;;
18176;SDS011;9213;50.858;3.964;2023-07-09T11:12:52;5.47;;;4.38;;
18176;SDS011;9213;50.858;3.964;2023-07-09T11:15:25;5.90;;;4.50;;
18176;SDS011;9213;50.858;3.964;2023-07-09T11:17:57;6.78;;;4.10;;
18176;SDS011;9213;50.858;3.964;2023-07-09T11:20:26;7.05;;;4.00;;
18176;SDS011;9213;50.858;3.964;2023-07-09T11:23:03;6.80;;;4.70;;
18176;SDS011;9213;50.858;3.964;2023-07-09T11:25:40;6.35;;;4.18;;
18176;SDS011;9213;50.858;3.964;2023-07-09T11:28:08;7.20;;;4.43;;
18176;SDS011;9213;50.858;3.964;2023-07-09T11:30:45;6.18;;;4.40;;
18176;SDS011;9213;50.858;3.964;2023-07-09T11:33:17;7.07;;;4.18;;
18176;SDS011;9213;50.858;3.964;2023-07-09T11:35:45;6.15;;;4.03;;
18176;SDS011;9213;50.858;3.964;2023-07-09T11:38:17;6.70;;;3.92;;
18176;SDS011;9213;50.858;3.964;2023-07-09T11:40:46;6.40;;;4.10;;
18176;SDS011;9213;50.858;3.964;2023-07-09T11:43:25;7.13;;;4.07;;
18176;SDS011;9213;50.858;3.964;2023-07-09T11:45:54;5.00;;;3.70;;
18176;SDS011;9213;50.858;3.964;2023-07-09T11:48:25;4.82;;;3.75;;
18176;SDS011;9213;50.858;3.964;2023-07-09T11:50:54;6.97;;;3.95;;
18176;SDS011;9213;50.858;3.964;2023-07-09T11:53:27;6.85;;;4.20;;
18176;SDS011;9213;50.858;3.964;2023-07-09T11:56:01;7.18;;;3.80;;
18176;SDS011;9213;50.858;3.964;2023-07-09T11:58:28;6.32;;;4.10;;
18176;SDS011;9213;50.858;3.964;2023-07-09T12:00:56;8.02;;;4.30;;
18176;SDS011;9213;50.858;3.964;2023-07-09T12:03:25;6.65;;;3.78;;
18176;SDS011;9213;50.858;3.964;2023-07-09T12:05:54;6.78;;;4.40;;
18176;SDS011;9213;50.858;3.964;2023-07-09T12:08:23;7.53;;;4.97;;
18176;SDS011;9213;50.858;3.964;2023-07-09T12:10:53;9.90;;;5.57;;
18176;SDS011;9213;50.858;3.964;2023-07-09T12:13:20;9.27;;;4.70;;
18176;SDS011;9213;50.858;3.964;2023-07-09T12:15:47;11.15;;;4.63;;
18176;SDS011;9213;50.858;3.964;2023-07-09T12:18:15;8.45;;;5.10;;
18176;SDS011;9213;50.858;3.964;2023-07-09T12:20:45;8.85;;;5.60;;
18176;SDS011;9213;50.858;3.964;2023-07-09T12:23:18;10.00;;;5.63;;
18176;SDS011;9213;50.858;3.964;2023-07-09T12:25:49;10.48;;;5.60;;
18176;SDS011;9213;50.858;3.964;2023-07-09T12:28:18;8.15;;;5.50;;
18176;SDS011;9213;50.858;3.964;2023-07-09T12:30:46;8.15;;;6.10;;
18176;SDS011;9213;50.858;3.964;2023-07-09T12:33:14;10.70;;;5.82;;
18176;SDS011;9213;50.858;3.964;2023-07-09T12:35:43;8.18;;;5.80;;
18176;SDS011;9213;50.858;3.964;2023-07-09T12:38:15;8.02;;;5.75;;
18176;SDS011;9213;50.858;3.964;2023-07-09T12:40:45;8.70;;;5.82;;
18176;SDS011;9213;50.858;3.964;2023-07-09T12:43:16;8.20;;;6.00;;
18176;SDS011;9213;50.858;3.964;2023-07-09T12:45:47;9.02;;;5.97;;
18176;SDS011;9213;50.858;3.964;2023-07-09T12:48:14;9.23;;;6.45;;
18176;SDS011;9213;50.858;3.964;2023-07-09T12:50:41;8.57;;;6.25;;
18176;SDS011;9213;50.858;3.964;2023-07-09T12:53:16;10.10;;;6.88;;
18176;SDS011;9213;50.858;3.964;2023-07-09T12:55:46;8.45;;;6.25;;
18176;SDS011;9213;50.858;3.964;2023-07-09T12:58:17;8.57;;;6.35;;
18176;SDS011;9213;50.858;3.964;2023-07-09T13:00:47;10.02;;;6.10;;
18176;SDS011;9213;50.858;3.964;2023-07-09T13:03:16;8.82;;;6.15;;
18176;SDS011;9213;50.858;3.964;2023-07-09T13:05:53;9.38;;;6.93;;
18176;SDS011;9213;50.858;3.964;2023-07-09T13:08:21;9.05;;;6.43;;
18176;SDS011;9213;50.858;3.964;2023-07-09T13:10:48;9.70;;;6.63;;
18176;SDS011;9213;50.858;3.964;2023-07-09T13:13:18;8.65;;;6.45;;
18176;SDS011;9213;50.858;3.964;2023-07-09T13:15:48;10.80;;;6.38;;
18176;SDS011;9213;50.858;3.964;2023-07-09T13:18:21;10.32;;;7.15;;
18176;SDS011;9213;50.858;3.964;2023-07-09T13:20:49;8.50;;;6.43;;
18176;SDS011;9213;50.858;3.964;2023-07-09T13:23:19;10.02;;;6.65;;
18176;SDS011;9213;50.858;3.964;2023-07-09T13:25:47;9.32;;;6.53;;
18176;SDS011;9213;50.858;3.964;2023-07-09T13:28:15;8.75;;;6.95;;
18176;SDS011;9213;50.858;3.964;2023-07-09T13:30:45;9.82;;;6.90;;
18176;SDS011;9213;50.858;3.964;2023-07-09T13:33:13;8.15;;;6.90;;
18176;SDS011;9213;50.858;3.964;2023-07-09T13:35:40;13.18;;;7.38;;
18176;SDS011;9213;50.858;3.964;2023-07-09T13:38:13;13.38;;;7.03;;
18176;SDS011;9213;50.858;3.964;2023-07-09T13:40:42;9.63;;;6.70;;
18176;SDS011;9213;50.858;3.964;2023-07-09T13:43:11;11.77;;;6.90;;
18176;SDS011;9213;50.858;3.964;2023-07-09T13:45:40;9.25;;;7.30;;
18176;SDS011;9213;50.858;3.964;2023-07-09T13:48:12;10.55;;;6.95;;
18176;SDS011;9213;50.858;3.964;2023-07-09T13:50:41;13.10;;;6.95;;
18176;SDS011;9213;50.858;3.964;2023-07-09T13:53:11;9.50;;;7.05;;
18176;SDS011;9213;50.858;3.964;2023-07-09T13:55:40;10.15;;;6.57;;
18176;SDS011;9213;50.858;3.964;2023-07-09T13:58:08;9.40;;;6.60;;
18176;SDS011;9213;50.858;3.964;2023-07-09T14:00:36;13.07;;;6.63;;
18176;SDS011;9213;50.858;3.964;2023-07-09T14:03:07;10.75;;;7.50;;
18176;SDS011;9213;50.858;3.964;2023-07-09T14:05:39;13.50;;;7.28;;
18176;SDS011;9213;50.858;3.964;2023-07-09T14:08:07;15.13;;;7.90;;
18176;SDS011;9213;50.858;3.964;2023-07-09T14:10:34;12.13;;;8.30;;
18176;SDS011;9213;50.858;3.964;2023-07-09T14:13:01;16.98;;;8.82;;
18176;SDS011;9213;50.858;3.964;2023-07-09T14:15:28;13.43;;;9.23;;
18176;SDS011;9213;50.858;3.964;2023-07-09T14:17:55;11.93;;;8.52;;
18176;SDS011;9213;50.858;3.964;2023-07-09T14:20:24;13.95;;;9.25;;
18176;SDS011;9213;50.858;3.964;2023-07-09T14:22:51;14.02;;;10.10;;
18176;SDS011;9213;50.858;3.964;2023-07-09T14:25:20;13.02;;;9.05;;
18176;SDS011;9213;50.858;3.964;2023-07-09T14:27:49;14.07;;;9.63;;
18176;SDS011;9213;50.858;3.964;2023-07-09T14:30:17;15.25;;;10.63;;
18176;SDS011;9213;50.858;3.964;2023-07-09T14:32:45;15.77;;;11.10;;
18176;SDS011;9213;50.858;3.964;2023-07-09T14:35:14;16.23;;;10.90;;
18176;SDS011;9213;50.858;3.964;2023-07-09T14:37:44;17.20;;;11.32;;
18176;SDS011;9213;50.858;3.964;2023-07-09T14:40:12;16.77;;;12.48;;
18176;SDS011;9213;50.858;3.964;2023-07-09T14:42:40;18.70;;;13.05;;
18176;SDS011;9213;50.858;3.964;2023-07-09T14:45:15;15.32;;;12.75;;
18176;SDS011;9213;50.858;3.964;2023-07-09T14:47:43;18.25;;;13.32;;
18176;SDS011;9213;50.858;3.964;2023-07-09T14:50:11;18.42;;;13.20;;
18176;SDS011;9213;50.858;3.964;2023-07-09T14:52:38;21.52;;;16.55;;
18176;SDS011;9213;50.858;3.964;2023-07-09T14:55:09;22.17;;;16.05;;
18176;SDS011;9213;50.858;3.964;2023-07-09T14:57:41;24.70;;;15.77;;
18176;SDS011;9213;50.858;3.964;2023-07-09T15:00:12;18.58;;;13.57;;
18176;SDS011;9213;50.858;3.964;2023-07-09T15:02:40;17.50;;;15.27;;
18176;SDS011;9213;50.858;3.964;2023-07-09T15:05:11;19.70;;;13.65;;